sensor_id;sensor_type;location;lat;lon;timestamp;temperature;humidity
23715;DHT22;12036;50.858;4.472;2023-05-29T00:02:07;14.80;99.90
23715;DHT22;12036;50.858;4.472;2023-05-29T00:04:33;14.90;99.90
23715;DHT22;12036;50.858;4.472;2023-05-29T00:06:59;14.90;99.90
23715;DHT22;12036;50.858;4.472;2023-05-29T00:09:24;14.80;99.90
23715;DHT22;12036;50.858;4.472;2023-05-29T00:11:50;14.80;99.90
23715;DHT22;12036;50.858;4.472;2023-05-29T00:14:20;14.70;99.90
23715;DHT22;12036;50.858;4.472;2023-05-29T00:16:47;14.80;99.90
23715;DHT22;12036;50.858;4.472;2023-05-29T00:19:15;14.70;99.90
23715;DHT22;12036;50.858;4.472;2023-05-29T00:21:45;14.70;99.90
23715;DHT22;12036;50.858;4.472;2023-05-29T00:24:16;14.70;99.90
23715;DHT22;12036;50.858;4.472;2023-05-29T00:26:42;14.70;99.90
23715;DHT22;12036;50.858;4.472;2023-05-29T00:29:08;14.70;99.90
23715;DHT22;12036;50.858;4.472;2023-05-29T00:31:34;14.60;99.90
23715;DHT22;12036;50.858;4.472;2023-05-29T00:34:01;14.50;99.90
23715;DHT22;12036;50.858;4.472;2023-05-29T00:36:26;14.60;99.90
23715;DHT22;12036;50.858;4.472;2023-05-29T00:38:54;14.50;99.90
23715;DHT22;12036;50.858;4.472;2023-05-29T00:41:19;14.40;99.90
23715;DHT22;12036;50.858;4.472;2023-05-29T00:43:45;14.50;99.90
23715;DHT22;12036;50.858;4.472;2023-05-29T00:46:13;14.40;99.90
23715;DHT22;12036;50.858;4.472;2023-05-29T00:48:39;14.30;99.90
23715;DHT22;12036;50.858;4.472;2023-05-29T00:51:07;14.20;99.90
23715;DHT22;12036;50.858;4.472;2023-05-29T00:53:33;14.20;99.90
23715;DHT22;12036;50.858;4.472;2023-05-29T00:55:59;14.20;99.90
23715;DHT22;12036;50.858;4.472;2023-05-29T00:58:26;14.30;99.90
23715;DHT22;12036;50.858;4.472;2023-05-29T01:00:51;14.20;99.90
23715;DHT22;12036;50.858;4.472;2023-05-29T01:03:18;14.20;99.90
23715;DHT22;12036;50.858;4.472;2023-05-29T01:05:44;14.20;99.90
23715;DHT22;12036;50.858;4.472;2023-05-29T01:08:12;14.20;99.90
23715;DHT22;12036;50.858;4.472;2023-05-29T01:10:38;14.20;99.90
23715;DHT22;12036;50.858;4.472;2023-05-29T01:13:13;14.20;99.90
23715;DHT22;12036;50.858;4.472;2023-05-29T01:16:06;14.00;99.90
23715;DHT22;12036;50.858;4.472;2023-05-29T01:24:31;13.90;99.90
23715;DHT22;12036;50.858;4.472;2023-05-29T01:27:01;13.90;99.90
23715;DHT22;12036;50.858;4.472;2023-05-29T01:29:29;13.90;99.90
23715;DHT22;12036;50.858;4.472;2023-05-29T01:31:58;13.90;99.90
23715;DHT22;12036;50.858;4.472;2023-05-29T01:34:24;13.80;99.90
23715;DHT22;12036;50.858;4.472;2023-05-29T01:36:50;13.80;99.90
23715;DHT22;12036;50.858;4.472;2023-05-29T01:39:16;13.70;99.90
23715;DHT22;12036;50.858;4.472;2023-05-29T01:41:45;13.70;99.90
23715;DHT22;12036;50.858;4.472;2023-05-29T01:44:11;13.70;99.90
23715;DHT22;12036;50.858;4.472;2023-05-29T01:46:42;13.80;99.90
23715;DHT22;12036;50.858;4.472;2023-05-29T01:49:09;13.80;99.90
23715;DHT22;12036;50.858;4.472;2023-05-29T01:51:36;13.80;99.90
23715;DHT22;12036;50.858;4.472;2023-05-29T01:54:02;13.80;99.90
23715;DHT22;12036;50.858;4.472;2023-05-29T01:56:29;13.70;99.90
23715;DHT22;12036;50.858;4.472;2023-05-29T01:58:56;13.70;99.90
23715;DHT22;12036;50.858;4.472;2023-05-29T02:01:23;13.90;99.90
23715;DHT22;12036;50.858;4.472;2023-05-29T02:03:49;13.90;99.90
23715;DHT22;12036;50.858;4.472;2023-05-29T02:06:16;13.90;99.90
23715;DHT22;12036;50.858;4.472;2023-05-29T02:08:42;13.80;99.90
23715;DHT22;12036;50.858;4.472;2023-05-29T02:11:08;13.70;99.90
23715;DHT22;12036;50.858;4.472;2023-05-29T02:13:34;13.70;99.90
23715;DHT22;12036;50.858;4.472;2023-05-29T02:16:00;13.60;99.90
23715;DHT22;12036;50.858;4.472;2023-05-29T02:18:26;13.80;99.90
23715;DHT22;12036;50.858;4.472;2023-05-29T02:20:51;13.70;99.90
23715;DHT22;12036;50.858;4.472;2023-05-29T02:23:17;13.60;99.90
23715;DHT22;12036;50.858;4.472;2023-05-29T02:25:44;13.60;99.90
23715;DHT22;12036;50.858;4.472;2023-05-29T02:28:10;13.70;99.90
23715;DHT22;12036;50.858;4.472;2023-05-29T02:30:36;13.50;99.90
23715;DHT22;12036;50.858;4.472;2023-05-29T02:33:01;13.60;99.90
23715;DHT22;12036;50.858;4.472;2023-05-29T02:35:27;13.50;99.90
23715;DHT22;12036;50.858;4.472;2023-05-29T02:37:53;13.60;99.90
23715;DHT22;12036;50.858;4.472;2023-05-29T02:40:19;13.70;99.90
23715;DHT22;12036;50.858;4.472;2023-05-29T02:42:45;13.60;99.90
23715;DHT22;12036;50.858;4.472;2023-05-29T02:45:11;13.50;99.90
23715;DHT22;12036;50.858;4.472;2023-05-29T02:47:37;13.50;99.90
23715;DHT22;12036;50.858;4.472;2023-05-29T02:50:03;13.40;99.90
23715;DHT22;12036;50.858;4.472;2023-05-29T02:52:29;13.20;99.90
23715;DHT22;12036;50.858;4.472;2023-05-29T02:54:58;13.20;99.90
23715;DHT22;12036;50.858;4.472;2023-05-29T02:57:24;13.20;99.90
23715;DHT22;12036;50.858;4.472;2023-05-29T02:59:50;13.10;99.90
23715;DHT22;12036;50.858;4.472;2023-05-29T03:02:17;12.90;99.90
23715;DHT22;12036;50.858;4.472;2023-05-29T03:04:43;12.90;99.90
23715;DHT22;12036;50.858;4.472;2023-05-29T03:07:09;12.70;99.90
23715;DHT22;12036;50.858;4.472;2023-05-29T03:09:35;12.80;99.90
23715;DHT22;12036;50.858;4.472;2023-05-29T03:12:01;12.70;99.90
23715;DHT22;12036;50.858;4.472;2023-05-29T03:14:28;12.60;99.90
23715;DHT22;12036;50.858;4.472;2023-05-29T03:16:54;12.50;99.90
23715;DHT22;12036;50.858;4.472;2023-05-29T03:19:20;12.40;99.90
23715;DHT22;12036;50.858;4.472;2023-05-29T03:21:46;12.20;99.90
23715;DHT22;12036;50.858;4.472;2023-05-29T03:24:12;12.30;99.90
23715;DHT22;12036;50.858;4.472;2023-05-29T03:26:40;12.30;99.90
23715;DHT22;12036;50.858;4.472;2023-05-29T03:29:06;12.40;99.90
23715;DHT22;12036;50.858;4.472;2023-05-29T03:31:32;12.30;99.90
23715;DHT22;12036;50.858;4.472;2023-05-29T03:33:59;12.20;99.90
23715;DHT22;12036;50.858;4.472;2023-05-29T03:36:24;12.20;99.90
23715;DHT22;12036;50.858;4.472;2023-05-29T03:38:50;12.20;99.90
23715;DHT22;12036;50.858;4.472;2023-05-29T03:41:16;12.10;99.90
23715;DHT22;12036;50.858;4.472;2023-05-29T03:43:41;12.10;99.90
23715;DHT22;12036;50.858;4.472;2023-05-29T03:46:07;12.10;99.90
23715;DHT22;12036;50.858;4.472;2023-05-29T03:48:32;12.00;99.90
23715;DHT22;12036;50.858;4.472;2023-05-29T03:50:58;12.00;99.90
23715;DHT22;12036;50.858;4.472;2023-05-29T03:53:24;12.00;99.90
23715;DHT22;12036;50.858;4.472;2023-05-29T03:55:50;12.00;99.90
23715;DHT22;12036;50.858;4.472;2023-05-29T03:58:15;11.90;99.90
23715;DHT22;12036;50.858;4.472;2023-05-29T04:00:41;12.00;99.90
23715;DHT22;12036;50.858;4.472;2023-05-29T04:03:07;11.90;99.90
23715;DHT22;12036;50.858;4.472;2023-05-29T04:05:33;12.00;99.90
23715;DHT22;12036;50.858;4.472;2023-05-29T04:07:59;11.90;99.90
23715;DHT22;12036;50.858;4.472;2023-05-29T04:10:24;12.00;99.90
23715;DHT22;12036;50.858;4.472;2023-05-29T04:12:50;11.90;99.90
23715;DHT22;12036;50.858;4.472;2023-05-29T04:15:16;11.90;99.90
23715;DHT22;12036;50.858;4.472;2023-05-29T04:17:42;12.00;99.90
23715;DHT22;12036;50.858;4.472;2023-05-29T04:20:08;12.00;99.90
23715;DHT22;12036;50.858;4.472;2023-05-29T04:22:37;12.00;99.90
23715;DHT22;12036;50.858;4.472;2023-05-29T04:25:04;12.10;99.90
23715;DHT22;12036;50.858;4.472;2023-05-29T04:27:30;12.00;99.90
23715;DHT22;12036;50.858;4.472;2023-05-29T04:29:58;12.10;99.90
23715;DHT22;12036;50.858;4.472;2023-05-29T04:32:23;12.10;99.90
23715;DHT22;12036;50.858;4.472;2023-05-29T04:34:49;12.20;99.90
23715;DHT22;12036;50.858;4.472;2023-05-29T04:37:16;12.30;99.90
23715;DHT22;12036;50.858;4.472;2023-05-29T04:39:43;12.40;99.90
23715;DHT22;12036;50.858;4.472;2023-05-29T04:42:08;12.30;99.90
23715;DHT22;12036;50.858;4.472;2023-05-29T04:44:34;12.40;99.90
23715;DHT22;12036;50.858;4.472;2023-05-29T04:47:00;12.90;99.90
23715;DHT22;12036;50.858;4.472;2023-05-29T04:49:29;13.90;99.90
23715;DHT22;12036;50.858;4.472;2023-05-29T04:51:55;14.70;99.90
23715;DHT22;12036;50.858;4.472;2023-05-29T04:54:22;15.20;99.90
23715;DHT22;12036;50.858;4.472;2023-05-29T04:56:48;15.10;99.90
23715;DHT22;12036;50.858;4.472;2023-05-29T04:59:14;15.10;99.50
23715;DHT22;12036;50.858;4.472;2023-05-29T05:01:40;14.90;99.70
23715;DHT22;12036;50.858;4.472;2023-05-29T05:04:08;14.60;99.90
23715;DHT22;12036;50.858;4.472;2023-05-29T05:06:34;14.50;99.90
23715;DHT22;12036;50.858;4.472;2023-05-29T05:09:00;14.50;99.90
23715;DHT22;12036;50.858;4.472;2023-05-29T05:11:26;14.70;99.90
23715;DHT22;12036;50.858;4.472;2023-05-29T05:13:52;14.80;99.90
23715;DHT22;12036;50.858;4.472;2023-05-29T05:16:17;15.00;99.60
23715;DHT22;12036;50.858;4.472;2023-05-29T05:18:43;15.20;99.50
23715;DHT22;12036;50.858;4.472;2023-05-29T05:21:09;15.70;98.40
23715;DHT22;12036;50.858;4.472;2023-05-29T05:23:36;16.70;97.20
23715;DHT22;12036;50.858;4.472;2023-05-29T05:26:01;17.80;94.40
23715;DHT22;12036;50.858;4.472;2023-05-29T05:28:27;18.90;92.00
23715;DHT22;12036;50.858;4.472;2023-05-29T05:30:52;19.60;90.10
23715;DHT22;12036;50.858;4.472;2023-05-29T05:33:18;20.30;85.90
23715;DHT22;12036;50.858;4.472;2023-05-29T05:35:44;20.30;83.60
23715;DHT22;12036;50.858;4.472;2023-05-29T05:38:10;20.20;82.90
23715;DHT22;12036;50.858;4.472;2023-05-29T05:40:35;20.00;81.80
23715;DHT22;12036;50.858;4.472;2023-05-29T05:43:01;19.50;83.00
23715;DHT22;12036;50.858;4.472;2023-05-29T05:45:27;19.30;83.10
23715;DHT22;12036;50.858;4.472;2023-05-29T05:47:52;19.60;82.70
23715;DHT22;12036;50.858;4.472;2023-05-29T05:50:18;19.70;81.90
23715;DHT22;12036;50.858;4.472;2023-05-29T05:52:44;19.50;80.80
23715;DHT22;12036;50.858;4.472;2023-05-29T05:55:10;19.30;82.70
23715;DHT22;12036;50.858;4.472;2023-05-29T05:57:36;19.00;82.70
23715;DHT22;12036;50.858;4.472;2023-05-29T06:00:03;18.70;83.40
23715;DHT22;12036;50.858;4.472;2023-05-29T06:02:38;18.20;85.30
23715;DHT22;12036;50.858;4.472;2023-05-29T06:05:08;17.60;86.90
23715;DHT22;12036;50.858;4.472;2023-05-29T06:07:35;17.40;88.50
23715;DHT22;12036;50.858;4.472;2023-05-29T06:10:01;17.00;90.00
23715;DHT22;12036;50.858;4.472;2023-05-29T06:12:26;16.80;90.60
23715;DHT22;12036;50.858;4.472;2023-05-29T06:14:52;16.90;91.00
23715;DHT22;12036;50.858;4.472;2023-05-29T06:17:18;17.10;90.10
23715;DHT22;12036;50.858;4.472;2023-05-29T06:19:44;17.10;90.10
23715;DHT22;12036;50.858;4.472;2023-05-29T06:22:09;17.00;90.30
23715;DHT22;12036;50.858;4.472;2023-05-29T06:24:35;17.20;90.30
23715;DHT22;12036;50.858;4.472;2023-05-29T06:27:01;17.50;89.70
23715;DHT22;12036;50.858;4.472;2023-05-29T06:29:27;18.20;89.40
23715;DHT22;12036;50.858;4.472;2023-05-29T06:31:52;19.90;85.90
23715;DHT22;12036;50.858;4.472;2023-05-29T06:34:18;21.70;79.30
23715;DHT22;12036;50.858;4.472;2023-05-29T06:36:43;22.70;74.30
23715;DHT22;12036;50.858;4.472;2023-05-29T06:39:09;23.30;70.90
23715;DHT22;12036;50.858;4.472;2023-05-29T06:41:35;23.80;69.50
23715;DHT22;12036;50.858;4.472;2023-05-29T06:44:01;23.90;66.70
23715;DHT22;12036;50.858;4.472;2023-05-29T06:46:27;23.80;65.40
23715;DHT22;12036;50.858;4.472;2023-05-29T06:48:52;23.60;66.00
23715;DHT22;12036;50.858;4.472;2023-05-29T06:51:18;23.40;65.80
23715;DHT22;12036;50.858;4.472;2023-05-29T06:53:43;23.80;63.80
23715;DHT22;12036;50.858;4.472;2023-05-29T06:56:09;24.40;62.70
23715;DHT22;12036;50.858;4.472;2023-05-29T06:58:35;24.90;61.60
23715;DHT22;12036;50.858;4.472;2023-05-29T07:01:01;25.40;59.80
23715;DHT22;12036;50.858;4.472;2023-05-29T07:03:27;25.50;59.70
23715;DHT22;12036;50.858;4.472;2023-05-29T07:05:52;25.50;58.90
23715;DHT22;12036;50.858;4.472;2023-05-29T07:08:18;25.10;58.80
23715;DHT22;12036;50.858;4.472;2023-05-29T07:10:44;24.70;59.30
23715;DHT22;12036;50.858;4.472;2023-05-29T07:13:13;23.50;60.70
23715;DHT22;12036;50.858;4.472;2023-05-29T07:15:38;22.50;63.70
23715;DHT22;12036;50.858;4.472;2023-05-29T07:18:04;21.90;63.90
23715;DHT22;12036;50.858;4.472;2023-05-29T07:20:30;21.50;64.70
23715;DHT22;12036;50.858;4.472;2023-05-29T07:22:55;21.30;66.00
23715;DHT22;12036;50.858;4.472;2023-05-29T07:25:21;21.40;65.30
23715;DHT22;12036;50.858;4.472;2023-05-29T07:27:46;21.30;65.30
23715;DHT22;12036;50.858;4.472;2023-05-29T07:30:12;21.20;66.00
23715;DHT22;12036;50.858;4.472;2023-05-29T07:32:38;20.60;67.80
23715;DHT22;12036;50.858;4.472;2023-05-29T07:35:04;20.10;69.40
23715;DHT22;12036;50.858;4.472;2023-05-29T07:37:30;19.50;71.00
23715;DHT22;12036;50.858;4.472;2023-05-29T07:39:57;19.30;71.30
23715;DHT22;12036;50.858;4.472;2023-05-29T07:42:22;19.10;70.80
23715;DHT22;12036;50.858;4.472;2023-05-29T07:44:48;18.90;72.50
23715;DHT22;12036;50.858;4.472;2023-05-29T07:47:14;18.50;74.30
23715;DHT22;12036;50.858;4.472;2023-05-29T07:49:40;18.40;75.00
23715;DHT22;12036;50.858;4.472;2023-05-29T07:52:06;18.40;75.20
23715;DHT22;12036;50.858;4.472;2023-05-29T07:54:32;18.60;74.60
23715;DHT22;12036;50.858;4.472;2023-05-29T07:57:02;18.80;74.60
23715;DHT22;12036;50.858;4.472;2023-05-29T07:59:40;18.90;73.40
23715;DHT22;12036;50.858;4.472;2023-05-29T08:02:07;18.80;73.90
23715;DHT22;12036;50.858;4.472;2023-05-29T08:04:33;18.70;74.70
23715;DHT22;12036;50.858;4.472;2023-05-29T08:07:02;18.50;75.90
23715;DHT22;12036;50.858;4.472;2023-05-29T08:09:30;18.30;75.60
23715;DHT22;12036;50.858;4.472;2023-05-29T08:11:56;18.10;76.80
23715;DHT22;12036;50.858;4.472;2023-05-29T08:14:21;18.00;78.00
23715;DHT22;12036;50.858;4.472;2023-05-29T08:16:47;18.00;78.60
23715;DHT22;12036;50.858;4.472;2023-05-29T08:19:13;18.10;79.20
23715;DHT22;12036;50.858;4.472;2023-05-29T08:21:38;18.20;78.70
23715;DHT22;12036;50.858;4.472;2023-05-29T08:24:05;18.30;78.60
23715;DHT22;12036;50.858;4.472;2023-05-29T08:26:31;18.20;78.10
23715;DHT22;12036;50.858;4.472;2023-05-29T08:28:57;18.30;77.30
23715;DHT22;12036;50.858;4.472;2023-05-29T08:31:22;18.20;77.40
23715;DHT22;12036;50.858;4.472;2023-05-29T08:33:52;18.10;77.40
23715;DHT22;12036;50.858;4.472;2023-05-29T08:36:18;17.80;78.40
23715;DHT22;12036;50.858;4.472;2023-05-29T08:38:50;17.80;78.30
23715;DHT22;12036;50.858;4.472;2023-05-29T08:41:37;17.70;79.00
23715;DHT22;12036;50.858;4.472;2023-05-29T08:44:07;17.80;79.00
23715;DHT22;12036;50.858;4.472;2023-05-29T08:46:37;17.70;79.00
23715;DHT22;12036;50.858;4.472;2023-05-29T08:49:04;17.70;80.50
23715;DHT22;12036;50.858;4.472;2023-05-29T08:51:32;17.80;80.50
23715;DHT22;12036;50.858;4.472;2023-05-29T08:54:00;18.00;79.60
23715;DHT22;12036;50.858;4.472;2023-05-29T08:56:27;18.20;79.40
23715;DHT22;12036;50.858;4.472;2023-05-29T08:58:53;18.20;80.80
23715;DHT22;12036;50.858;4.472;2023-05-29T09:01:21;18.10;79.60
23715;DHT22;12036;50.858;4.472;2023-05-29T09:03:47;18.20;78.70
23715;DHT22;12036;50.858;4.472;2023-05-29T09:06:13;18.20;79.80
23715;DHT22;12036;50.858;4.472;2023-05-29T09:08:39;18.30;80.00
23715;DHT22;12036;50.858;4.472;2023-05-29T09:11:05;18.40;78.80
23715;DHT22;12036;50.858;4.472;2023-05-29T09:13:30;18.60;79.70
23715;DHT22;12036;50.858;4.472;2023-05-29T09:16:00;18.70;79.40
23715;DHT22;12036;50.858;4.472;2023-05-29T09:18:29;18.80;79.70
23715;DHT22;12036;50.858;4.472;2023-05-29T09:20:57;19.00;78.50
23715;DHT22;12036;50.858;4.472;2023-05-29T09:23:23;19.10;77.60
23715;DHT22;12036;50.858;4.472;2023-05-29T09:25:52;19.20;77.30
23715;DHT22;12036;50.858;4.472;2023-05-29T09:28:19;19.20;77.60
23715;DHT22;12036;50.858;4.472;2023-05-29T09:30:46;19.10;77.10
23715;DHT22;12036;50.858;4.472;2023-05-29T09:33:13;19.00;75.40
23715;DHT22;12036;50.858;4.472;2023-05-29T09:35:40;18.80;77.20
23715;DHT22;12036;50.858;4.472;2023-05-29T09:38:06;18.90;78.10
23715;DHT22;12036;50.858;4.472;2023-05-29T09:40:34;19.10;78.70
23715;DHT22;12036;50.858;4.472;2023-05-29T09:43:14;19.30;76.80
23715;DHT22;12036;50.858;4.472;2023-05-29T09:45:43;19.30;77.90
23715;DHT22;12036;50.858;4.472;2023-05-29T09:48:23;19.40;77.10
23715;DHT22;12036;50.858;4.472;2023-05-29T09:50:49;19.40;76.30
23715;DHT22;12036;50.858;4.472;2023-05-29T09:53:23;19.50;75.60
23715;DHT22;12036;50.858;4.472;2023-05-29T09:55:51;19.60;76.20
23715;DHT22;12036;50.858;4.472;2023-05-29T09:58:18;19.80;76.20
23715;DHT22;12036;50.858;4.472;2023-05-29T10:00:44;20.10;75.20
23715;DHT22;12036;50.858;4.472;2023-05-29T10:03:11;20.40;74.50
23715;DHT22;12036;50.858;4.472;2023-05-29T10:05:39;20.90;72.80
23715;DHT22;12036;50.858;4.472;2023-05-29T10:08:11;21.40;73.10
23715;DHT22;12036;50.858;4.472;2023-05-29T10:10:37;22.10;69.80
23715;DHT22;12036;50.858;4.472;2023-05-29T10:13:06;22.60;67.60
23715;DHT22;12036;50.858;4.472;2023-05-29T10:15:36;22.60;67.10
23715;DHT22;12036;50.858;4.472;2023-05-29T10:18:10;23.00;66.90
23715;DHT22;12036;50.858;4.472;2023-05-29T10:20:39;24.00;65.90
23715;DHT22;12036;50.858;4.472;2023-05-29T10:23:06;24.60;63.50
23715;DHT22;12036;50.858;4.472;2023-05-29T10:25:34;25.00;61.60
23715;DHT22;12036;50.858;4.472;2023-05-29T10:28:01;25.30;61.50
23715;DHT22;12036;50.858;4.472;2023-05-29T10:30:37;25.40;60.80
23715;DHT22;12036;50.858;4.472;2023-05-29T10:36:20;26.20;57.70
23715;DHT22;12036;50.858;4.472;2023-05-29T10:38:52;26.10;57.80
23715;DHT22;12036;50.858;4.472;2023-05-29T10:43:56;25.90;58.10
23715;DHT22;12036;50.858;4.472;2023-05-29T10:49:20;26.00;57.80
23715;DHT22;12036;50.858;4.472;2023-05-29T10:51:46;26.00;57.40
23715;DHT22;12036;50.858;4.472;2023-05-29T10:54:14;25.90;57.10
23715;DHT22;12036;50.858;4.472;2023-05-29T10:56:40;25.40;57.80
23715;DHT22;12036;50.858;4.472;2023-05-29T10:59:09;26.10;56.40
23715;DHT22;12036;50.858;4.472;2023-05-29T11:01:38;26.00;56.50
23715;DHT22;12036;50.858;4.472;2023-05-29T11:04:25;26.30;55.70
23715;DHT22;12036;50.858;4.472;2023-05-29T11:06:57;26.10;56.40
23715;DHT22;12036;50.858;4.472;2023-05-29T11:12:22;26.00;56.20
23715;DHT22;12036;50.858;4.472;2023-05-29T11:15:10;26.10;55.60
23715;DHT22;12036;50.858;4.472;2023-05-29T11:25:26;26.60;55.00
23715;DHT22;12036;50.858;4.472;2023-05-29T11:27:52;26.70;55.10
23715;DHT22;12036;50.858;4.472;2023-05-29T11:30:19;26.60;54.50
23715;DHT22;12036;50.858;4.472;2023-05-29T11:32:46;26.60;54.70
23715;DHT22;12036;50.858;4.472;2023-05-29T11:35:13;26.20;55.30
23715;DHT22;12036;50.858;4.472;2023-05-29T11:37:40;25.80;55.50
23715;DHT22;12036;50.858;4.472;2023-05-29T11:40:08;26.00;55.50
23715;DHT22;12036;50.858;4.472;2023-05-29T11:42:35;25.90;55.10
23715;DHT22;12036;50.858;4.472;2023-05-29T11:45:14;25.60;56.10
23715;DHT22;12036;50.858;4.472;2023-05-29T11:48:01;25.10;56.20
23715;DHT22;12036;50.858;4.472;2023-05-29T11:50:31;24.70;57.40
23715;DHT22;12036;50.858;4.472;2023-05-29T11:52:58;24.40;57.20
23715;DHT22;12036;50.858;4.472;2023-05-29T11:55:25;24.00;58.70
23715;DHT22;12036;50.858;4.472;2023-05-29T11:57:59;23.70;59.60
23715;DHT22;12036;50.858;4.472;2023-05-29T12:00:25;23.60;59.00
23715;DHT22;12036;50.858;4.472;2023-05-29T12:02:52;23.40;59.20
23715;DHT22;12036;50.858;4.472;2023-05-29T12:05:18;23.50;59.20
23715;DHT22;12036;50.858;4.472;2023-05-29T12:07:54;23.50;60.40
23715;DHT22;12036;50.858;4.472;2023-05-29T12:10:23;23.30;59.20
23715;DHT22;12036;50.858;4.472;2023-05-29T12:12:54;23.10;58.80
23715;DHT22;12036;50.858;4.472;2023-05-29T12:15:20;23.00;59.60
23715;DHT22;12036;50.858;4.472;2023-05-29T12:17:48;23.00;59.70
23715;DHT22;12036;50.858;4.472;2023-05-29T12:20:15;23.00;59.00
23715;DHT22;12036;50.858;4.472;2023-05-29T12:22:42;23.00;59.60
23715;DHT22;12036;50.858;4.472;2023-05-29T12:25:10;23.00;59.40
23715;DHT22;12036;50.858;4.472;2023-05-29T12:27:41;22.90;59.80
23715;DHT22;12036;50.858;4.472;2023-05-29T12:30:12;22.90;59.80
23715;DHT22;12036;50.858;4.472;2023-05-29T12:32:43;22.90;59.00
23715;DHT22;12036;50.858;4.472;2023-05-29T12:35:22;22.80;60.20
23715;DHT22;12036;50.858;4.472;2023-05-29T12:37:58;23.00;59.70
23715;DHT22;12036;50.858;4.472;2023-05-29T12:40:29;23.00;61.60
23715;DHT22;12036;50.858;4.472;2023-05-29T12:43:05;23.00;59.90
23715;DHT22;12036;50.858;4.472;2023-05-29T12:45:33;23.10;59.70
23715;DHT22;12036;50.858;4.472;2023-05-29T12:48:00;23.10;59.70
23715;DHT22;12036;50.858;4.472;2023-05-29T12:50:37;23.10;61.20
23715;DHT22;12036;50.858;4.472;2023-05-29T12:53:08;23.20;59.10
23715;DHT22;12036;50.858;4.472;2023-05-29T12:55:42;23.30;59.90
23715;DHT22;12036;50.858;4.472;2023-05-29T12:58:11;23.30;59.90
23715;DHT22;12036;50.858;4.472;2023-05-29T13:00:39;23.30;59.00
23715;DHT22;12036;50.858;4.472;2023-05-29T13:03:06;23.30;59.30
23715;DHT22;12036;50.858;4.472;2023-05-29T13:05:32;23.30;59.20
23715;DHT22;12036;50.858;4.472;2023-05-29T13:07:58;23.20;59.50
23715;DHT22;12036;50.858;4.472;2023-05-29T13:10:25;23.10;59.30
23715;DHT22;12036;50.858;4.472;2023-05-29T13:12:51;23.00;59.00
23715;DHT22;12036;50.858;4.472;2023-05-29T13:15:21;23.00;59.60
23715;DHT22;12036;50.858;4.472;2023-05-29T13:17:47;23.00;60.90
23715;DHT22;12036;50.858;4.472;2023-05-29T13:20:13;23.10;59.60
23715;DHT22;12036;50.858;4.472;2023-05-29T13:22:40;23.10;60.60
23715;DHT22;12036;50.858;4.472;2023-05-29T13:25:06;23.20;61.00
23715;DHT22;12036;50.858;4.472;2023-05-29T13:27:33;23.30;60.50
23715;DHT22;12036;50.858;4.472;2023-05-29T13:30:03;23.30;59.20
23715;DHT22;12036;50.858;4.472;2023-05-29T13:32:29;23.20;59.10
23715;DHT22;12036;50.858;4.472;2023-05-29T13:34:55;23.30;59.80
23715;DHT22;12036;50.858;4.472;2023-05-29T13:37:21;23.30;61.90
23715;DHT22;12036;50.858;4.472;2023-05-29T13:39:47;23.30;60.00
23715;DHT22;12036;50.858;4.472;2023-05-29T13:42:13;23.30;60.30
23715;DHT22;12036;50.858;4.472;2023-05-29T13:44:38;23.10;60.00
23715;DHT22;12036;50.858;4.472;2023-05-29T13:47:05;23.20;59.60
23715;DHT22;12036;50.858;4.472;2023-05-29T13:49:32;23.10;60.00
23715;DHT22;12036;50.858;4.472;2023-05-29T13:51:57;23.00;61.10
23715;DHT22;12036;50.858;4.472;2023-05-29T13:54:23;23.10;60.30
23715;DHT22;12036;50.858;4.472;2023-05-29T13:56:48;23.10;59.80
23715;DHT22;12036;50.858;4.472;2023-05-29T13:59:14;23.30;59.90
23715;DHT22;12036;50.858;4.472;2023-05-29T14:01:40;23.30;59.60
23715;DHT22;12036;50.858;4.472;2023-05-29T14:04:06;23.30;60.60
23715;DHT22;12036;50.858;4.472;2023-05-29T14:06:33;23.30;60.20
23715;DHT22;12036;50.858;4.472;2023-05-29T14:08:59;23.30;59.70
23715;DHT22;12036;50.858;4.472;2023-05-29T14:11:25;23.30;58.90
23715;DHT22;12036;50.858;4.472;2023-05-29T14:13:52;23.10;59.40
23715;DHT22;12036;50.858;4.472;2023-05-29T14:16:17;23.10;60.70
23715;DHT22;12036;50.858;4.472;2023-05-29T14:18:43;23.00;61.10
23715;DHT22;12036;50.858;4.472;2023-05-29T14:21:09;23.00;61.30
23715;DHT22;12036;50.858;4.472;2023-05-29T14:23:36;23.10;62.20
23715;DHT22;12036;50.858;4.472;2023-05-29T14:26:01;23.10;60.00
23715;DHT22;12036;50.858;4.472;2023-05-29T14:28:27;23.20;59.90
23715;DHT22;12036;50.858;4.472;2023-05-29T14:30:53;23.20;59.80
23715;DHT22;12036;50.858;4.472;2023-05-29T14:33:19;23.20;60.50
23715;DHT22;12036;50.858;4.472;2023-05-29T14:35:44;23.20;59.20
23715;DHT22;12036;50.858;4.472;2023-05-29T14:38:10;23.20;59.50
23715;DHT22;12036;50.858;4.472;2023-05-29T14:40:36;23.00;59.90
23715;DHT22;12036;50.858;4.472;2023-05-29T14:43:02;23.10;59.90
23715;DHT22;12036;50.858;4.472;2023-05-29T14:45:28;23.00;60.40
23715;DHT22;12036;50.858;4.472;2023-05-29T14:47:54;22.80;60.30
23715;DHT22;12036;50.858;4.472;2023-05-29T14:50:20;22.70;60.30
23715;DHT22;12036;50.858;4.472;2023-05-29T14:52:45;22.70;60.20
23715;DHT22;12036;50.858;4.472;2023-05-29T14:55:13;22.70;59.80
23715;DHT22;12036;50.858;4.472;2023-05-29T14:57:40;22.60;59.80
23715;DHT22;12036;50.858;4.472;2023-05-29T15:00:07;22.40;61.00
23715;DHT22;12036;50.858;4.472;2023-05-29T15:02:33;22.40;60.80
23715;DHT22;12036;50.858;4.472;2023-05-29T15:04:59;22.50;61.00
23715;DHT22;12036;50.858;4.472;2023-05-29T15:07:25;22.50;59.90
23715;DHT22;12036;50.858;4.472;2023-05-29T15:09:51;22.60;60.30
23715;DHT22;12036;50.858;4.472;2023-05-29T15:12:17;22.50;59.70
23715;DHT22;12036;50.858;4.472;2023-05-29T15:14:43;22.60;59.70
23715;DHT22;12036;50.858;4.472;2023-05-29T15:17:08;22.50;60.40
23715;DHT22;12036;50.858;4.472;2023-05-29T15:19:34;22.40;61.80
23715;DHT22;12036;50.858;4.472;2023-05-29T15:22:00;22.30;61.60
23715;DHT22;12036;50.858;4.472;2023-05-29T15:24:25;22.20;60.00
23715;DHT22;12036;50.858;4.472;2023-05-29T15:26:51;22.30;60.30
23715;DHT22;12036;50.858;4.472;2023-05-29T15:29:17;22.10;60.90
23715;DHT22;12036;50.858;4.472;2023-05-29T15:31:42;22.00;60.50
23715;DHT22;12036;50.858;4.472;2023-05-29T15:34:08;21.90;61.00
23715;DHT22;12036;50.858;4.472;2023-05-29T15:36:34;21.70;62.30
23715;DHT22;12036;50.858;4.472;2023-05-29T15:39:02;21.70;61.80
23715;DHT22;12036;50.858;4.472;2023-05-29T15:41:28;21.70;62.50
23715;DHT22;12036;50.858;4.472;2023-05-29T15:43:55;21.70;62.40
23715;DHT22;12036;50.858;4.472;2023-05-29T15:46:21;21.80;61.80
23715;DHT22;12036;50.858;4.472;2023-05-29T15:48:46;21.80;60.60
23715;DHT22;12036;50.858;4.472;2023-05-29T15:51:12;21.70;61.70
23715;DHT22;12036;50.858;4.472;2023-05-29T15:53:38;21.70;60.80
23715;DHT22;12036;50.858;4.472;2023-05-29T15:56:03;21.70;60.60